createdAt,value
2019-01-12T00:00:50.153Z,7.00
2019-01-12T00:03:19.537Z,7.00
2019-01-12T00:05:48.934Z,7.00
2019-01-12T00:08:20.952Z,7.00
2019-01-12T00:10:50.259Z,7.00
2019-01-12T00:13:19.624Z,7.00
2019-01-12T00:15:48.994Z,7.00
2019-01-12T00:18:18.328Z,7.00
2019-01-12T00:20:47.853Z,7.00
2019-01-12T00:23:17.196Z,7.00
2019-01-12T00:25:46.636Z,7.00
2019-01-12T00:28:15.960Z,7.10
2019-01-12T00:30:45.232Z,7.10
2019-01-12T00:33:16.142Z,7.10
2019-01-12T00:35:45.457Z,7.10
2019-01-12T00:38:14.951Z,7.10
2019-01-12T00:40:44.342Z,7.10
2019-01-12T00:43:14.116Z,7.10
2019-01-12T00:45:43.444Z,7.10
2019-01-12T00:48:12.840Z,7.10
2019-01-12T00:50:42.386Z,7.10
2019-01-12T00:53:12.082Z,7.10
2019-01-12T00:55:41.381Z,7.10
2019-01-12T00:58:10.743Z,7.10
2019-01-12T01:00:39.961Z,7.10
2019-01-12T01:03:09.516Z,7.10
2019-01-12T01:05:38.831Z,7.20
2019-01-12T01:08:08.195Z,7.20
2019-01-12T01:10:37.471Z,7.10
2019-01-12T01:13:06.785Z,7.20
2019-01-12T01:15:36.686Z,7.20
2019-01-12T01:18:05.959Z,7.20
2019-01-12T01:20:35.298Z,7.20
2019-01-12T01:23:04.537Z,7.20
2019-01-12T01:25:33.838Z,7.20
2019-01-12T01:28:03.164Z,7.20
2019-01-12T01:30:32.787Z,7.20
2019-01-12T01:33:02.137Z,7.20
2019-01-12T01:35:31.485Z,7.20
2019-01-12T01:38:00.880Z,7.20
2019-01-12T01:40:30.160Z,7.20
2019-01-12T01:42:59.858Z,7.20
2019-01-12T01:45:29.514Z,7.20
2019-01-12T01:47:58.812Z,7.20
2019-01-12T01:50:28.113Z,7.20
2019-01-12T01:52:57.435Z,7.20
2019-01-12T01:55:26.844Z,7.20
2019-01-12T01:57:56.367Z,7.20
2019-01-12T02:00:25.717Z,7.90
2019-01-12T02:02:54.986Z,7.20
2019-01-12T02:05:24.303Z,7.10
2019-01-12T02:07:53.633Z,7.20
2019-01-12T02:10:23.619Z,7.20
2019-01-12T02:12:53.134Z,7.20
2019-01-12T02:15:23.087Z,7.20
2019-01-12T02:17:52.346Z,7.10
2019-01-12T02:20:23.150Z,7.20
2019-01-12T02:22:52.625Z,7.10
2019-01-12T02:25:22.141Z,7.10
2019-01-12T02:27:51.533Z,7.10
2019-01-12T02:30:23.161Z,7.10
2019-01-12T02:32:55.197Z,7.10
2019-01-12T02:35:24.601Z,7.10
2019-01-12T02:37:53.858Z,7.10
2019-01-12T02:40:23.913Z,7.10
2019-01-12T02:42:53.263Z,7.10
2019-01-12T02:45:22.656Z,7.10
2019-01-12T02:47:51.988Z,7.10
2019-01-12T02:50:21.555Z,7.10
2019-01-12T02:52:52.600Z,7.00
2019-01-12T02:55:21.850Z,7.00
2019-01-12T02:57:51.151Z,7.00
2019-01-12T03:00:20.783Z,7.00
2019-01-12T03:02:50.657Z,7.00
2019-01-12T03:05:20.255Z,7.00
2019-01-12T03:07:49.915Z,7.00
2019-01-12T03:10:19.721Z,7.00
2019-01-12T03:12:49.022Z,7.00
2019-01-12T03:15:18.888Z,7.00
2019-01-12T03:17:48.238Z,7.00
2019-01-12T03:20:19.329Z,7.00
2019-01-12T03:22:48.616Z,7.00
2019-01-12T03:25:19.283Z,7.00
2019-01-12T03:27:49.337Z,7.00
2019-01-12T03:30:19.594Z,7.00
2019-01-12T03:32:48.983Z,7.00
2019-01-12T03:35:18.858Z,7.00
2019-01-12T03:37:48.474Z,6.90
2019-01-12T03:40:21.823Z,6.90
2019-01-12T03:42:51.277Z,6.90
2019-01-12T03:45:21.520Z,6.90
2019-01-12T03:47:51.327Z,6.90
2019-01-12T03:50:20.936Z,6.90
2019-01-12T03:52:50.202Z,6.90
2019-01-12T03:55:25.434Z,6.90
2019-01-12T03:57:51.986Z,6.90
2019-01-12T04:00:23.276Z,6.90
2019-01-12T04:02:52.855Z,6.80
2019-01-12T04:05:22.846Z,6.80
2019-01-12T04:07:52.140Z,6.80
2019-01-12T04:10:21.683Z,6.80
2019-01-12T04:12:51.032Z,6.80
2019-01-12T04:15:20.626Z,6.80
2019-01-12T04:17:50.039Z,6.80
2019-01-12T04:20:19.696Z,6.90
2019-01-12T04:22:48.942Z,6.80
2019-01-12T04:25:18.594Z,6.90
2019-01-12T04:27:47.943Z,6.80
2019-01-12T04:30:18.663Z,6.80
2019-01-12T04:32:48.080Z,6.90
2019-01-12T04:35:17.464Z,6.80
2019-01-12T04:37:46.754Z,6.90
2019-01-12T04:40:18.215Z,6.90
2019-01-12T04:42:47.569Z,6.90
2019-01-12T04:45:16.924Z,6.90
2019-01-12T04:47:46.525Z,6.90
2019-01-12T04:50:17.213Z,6.90
2019-01-12T04:52:46.792Z,6.90
2019-01-12T04:55:16.178Z,6.90
2019-01-12T04:57:45.773Z,6.90
2019-01-12T05:00:19.459Z,6.90
2019-01-12T05:02:49.114Z,6.90
2019-01-12T05:05:18.656Z,6.90
2019-01-12T05:07:48.110Z,7.00
2019-01-12T05:10:17.504Z,7.00
2019-01-12T05:12:47.658Z,7.00
2019-01-12T05:15:17.051Z,7.00
2019-01-12T05:17:46.778Z,7.00
2019-01-12T05:20:18.542Z,7.00
2019-01-12T05:22:47.977Z,7.00
2019-01-12T05:25:17.677Z,7.00
2019-01-12T05:27:46.976Z,7.00
2019-01-12T05:30:18.819Z,7.10
2019-01-12T05:32:48.133Z,7.10
2019-01-12T05:35:18.056Z,7.10
2019-01-12T05:37:47.558Z,7.10
2019-01-12T05:40:17.356Z,7.10
2019-01-12T05:42:46.946Z,7.10
2019-01-12T05:45:16.802Z,7.10
2019-01-12T05:47:46.470Z,7.10
2019-01-12T05:50:15.917Z,7.10
2019-01-12T05:52:45.604Z,7.10
2019-01-12T05:55:17.898Z,7.20
2019-01-12T05:57:47.543Z,7.20
2019-01-12T06:00:19.564Z,7.20
2019-01-12T06:02:48.841Z,7.20
2019-01-12T06:05:18.132Z,7.20
2019-01-12T06:07:47.500Z,7.20
2019-01-12T06:10:16.821Z,7.20
2019-01-12T06:12:46.101Z,7.20
2019-01-12T06:15:15.576Z,7.20
2019-01-12T06:17:44.907Z,7.20
2019-01-12T06:20:16.400Z,7.20
2019-01-12T06:22:45.749Z,7.20
2019-01-12T06:25:15.067Z,7.20
2019-01-12T06:27:44.395Z,7.30
2019-01-12T06:30:16.720Z,7.20
2019-01-12T06:32:46.114Z,7.30
2019-01-12T06:35:17.704Z,7.30
2019-01-12T06:37:47.173Z,7.30
2019-01-12T06:40:18.925Z,7.30
2019-01-12T06:42:48.479Z,7.30
2019-01-12T06:45:18.821Z,7.30
2019-01-12T06:47:48.148Z,7.30
2019-01-12T06:50:19.587Z,7.30
2019-01-12T06:52:49.179Z,7.30
2019-01-12T06:55:18.529Z,7.30
2019-01-12T06:57:47.856Z,7.30
2019-01-12T07:00:18.979Z,7.30
2019-01-12T07:02:48.245Z,7.30
2019-01-12T07:05:17.601Z,7.30
2019-01-12T07:07:47.152Z,7.40
2019-01-12T07:10:17.945Z,7.40
2019-01-12T07:12:47.598Z,7.40
2019-01-12T07:15:16.950Z,7.40
2019-01-12T07:17:46.551Z,7.40
2019-01-12T07:20:17.624Z,7.40
2019-01-12T07:22:50.360Z,7.40
2019-01-12T07:25:22.526Z,7.40
2019-01-12T07:27:52.172Z,7.40
2019-01-12T07:30:23.997Z,7.40
2019-01-12T07:32:53.505Z,7.40
2019-01-12T07:35:23.004Z,7.50
2019-01-12T07:37:52.475Z,7.40
2019-01-12T07:40:22.078Z,7.40
2019-01-12T07:42:51.770Z,7.40
2019-01-12T07:45:21.129Z,7.50
2019-01-12T07:47:50.452Z,7.50
2019-01-12T07:50:19.915Z,7.50
2019-01-12T07:52:49.248Z,7.50
2019-01-12T07:55:18.540Z,7.50
2019-01-12T07:57:48.965Z,7.50
2019-01-12T08:00:22.602Z,7.50
2019-01-12T08:02:52.169Z,7.50
2019-01-12T08:05:22.479Z,7.50
2019-01-12T08:07:52.329Z,7.50
2019-01-12T08:10:27.406Z,7.50
2019-01-12T08:12:56.676Z,7.60
2019-01-12T08:15:26.484Z,7.60
2019-01-12T08:17:55.864Z,7.60
2019-01-12T08:20:25.267Z,7.60
2019-01-12T08:22:54.638Z,7.60
2019-01-12T08:25:24.048Z,7.60
2019-01-12T08:27:53.595Z,7.60
2019-01-12T08:30:22.981Z,7.70
2019-01-12T08:32:52.283Z,7.70
2019-01-12T08:35:21.737Z,7.70
2019-01-12T08:37:51.096Z,7.70
2019-01-12T08:40:20.415Z,7.70
2019-01-12T08:42:52.142Z,7.70
2019-01-12T08:45:21.531Z,7.70
2019-01-12T08:47:50.962Z,7.70
2019-01-12T08:50:20.769Z,7.70
2019-01-12T08:52:50.095Z,7.80
2019-01-12T08:55:19.444Z,7.80
2019-01-12T08:57:49.040Z,7.80
2019-01-12T09:00:20.430Z,7.80
2019-01-12T09:02:49.805Z,7.80
2019-01-12T09:05:19.254Z,7.80
2019-01-12T09:07:48.581Z,7.80
2019-01-12T09:10:20.010Z,7.80
2019-01-12T09:12:49.537Z,7.70
2019-01-12T09:15:18.845Z,7.70
2019-01-12T09:17:48.272Z,7.70
2019-01-12T09:20:17.584Z,7.70
2019-01-12T09:22:46.877Z,7.70
2019-01-12T09:25:16.362Z,7.60
2019-01-12T09:27:45.794Z,7.60
2019-01-12T09:30:20.205Z,7.60
2019-01-12T09:32:50.165Z,7.60
2019-01-12T09:35:19.615Z,7.60
2019-01-12T09:37:48.966Z,7.60
2019-01-12T09:40:20.002Z,7.60
2019-01-12T09:42:53.250Z,7.60
2019-01-12T09:45:22.872Z,7.60
2019-01-12T09:47:52.245Z,7.60
2019-01-12T09:50:22.006Z,7.60
2019-01-12T09:52:51.605Z,7.60
2019-01-12T09:55:20.865Z,7.60
2019-01-12T09:57:50.356Z,7.60
2019-01-12T10:00:24.472Z,7.60
2019-01-12T10:02:53.800Z,7.60
2019-01-12T10:05:23.062Z,7.70
2019-01-12T10:07:52.416Z,7.70
2019-01-12T10:10:22.225Z,7.70
2019-01-12T10:12:51.591Z,7.70
2019-01-12T10:15:20.931Z,7.70
2019-01-12T10:17:50.272Z,7.70
2019-01-12T10:20:20.381Z,7.70
2019-01-12T10:22:49.930Z,7.70
2019-01-12T10:26:06.802Z,7.70
2019-01-12T10:28:32.314Z,7.70
2019-01-12T10:31:01.645Z,7.70
2019-01-12T10:33:31.117Z,7.70
2019-01-12T10:36:00.676Z,7.80
2019-01-12T10:38:30.642Z,7.80
2019-01-12T10:41:00.187Z,7.80
2019-01-12T10:43:29.493Z,7.80
2019-01-12T10:45:59.119Z,7.80
2019-01-12T10:48:28.442Z,7.80
2019-01-12T10:50:57.878Z,7.80
2019-01-12T10:53:27.176Z,7.80
2019-01-12T10:55:56.492Z,7.80
2019-01-12T10:58:26.217Z,7.80
2019-01-12T11:00:55.809Z,7.80
2019-01-12T11:03:26.097Z,7.80
2019-01-12T11:05:57.159Z,7.80
2019-01-12T11:08:26.423Z,7.80
2019-01-12T11:10:58.699Z,7.80
2019-01-12T11:13:27.981Z,7.80
2019-01-12T11:15:57.269Z,7.90
2019-01-12T11:18:26.846Z,7.90
2019-01-12T11:20:56.634Z,7.90
2019-01-12T11:23:25.900Z,7.90
2019-01-12T11:25:55.167Z,7.90
2019-01-12T11:28:24.440Z,7.90
2019-01-12T11:30:53.815Z,7.90
2019-01-12T11:33:23.024Z,7.90
2019-01-12T11:35:52.626Z,7.90
2019-01-12T11:38:21.902Z,8.00
2019-01-12T11:40:51.176Z,8.00
2019-01-12T11:43:20.425Z,8.00
2019-01-12T11:45:50.678Z,8.00
2019-01-12T11:48:20.110Z,8.00
2019-01-12T11:50:49.528Z,8.00
2019-01-12T11:53:18.806Z,8.10
2019-01-12T11:55:51.338Z,8.10
2019-01-12T11:58:20.681Z,8.10
2019-01-12T12:00:52.094Z,8.10
2019-01-12T12:03:21.477Z,8.10
2019-01-12T12:05:50.753Z,8.10
2019-01-12T12:08:20.033Z,8.10
2019-01-12T12:10:49.369Z,8.20
2019-01-12T12:13:18.652Z,8.20
2019-01-12T12:15:48.101Z,8.20
2019-01-12T12:18:17.490Z,8.20
2019-01-12T12:20:52.378Z,8.20
2019-01-12T12:23:23.632Z,8.20
2019-01-12T12:25:52.996Z,8.20
2019-01-12T12:28:22.346Z,8.20
2019-01-12T12:30:51.684Z,8.30
2019-01-12T12:33:21.124Z,8.30
2019-01-12T12:35:50.443Z,8.30
2019-01-12T12:38:19.744Z,8.30
2019-01-12T12:40:49.083Z,8.30
2019-01-12T12:43:18.406Z,8.30
2019-01-12T12:45:47.774Z,8.30
2019-01-12T12:48:17.107Z,8.30
2019-01-12T12:50:46.571Z,8.30
2019-01-12T12:53:15.975Z,8.30
2019-01-12T12:55:45.337Z,8.40
2019-01-12T12:58:14.717Z,8.30
2019-01-12T13:00:44.016Z,8.40
2019-01-12T13:03:13.351Z,8.40
2019-01-12T13:05:42.620Z,8.40
2019-01-12T13:08:11.884Z,8.40
2019-01-12T13:10:41.205Z,8.40
2019-01-12T13:13:10.697Z,8.40
2019-01-12T13:15:40.106Z,8.40
2019-01-12T13:18:09.412Z,8.40
2019-01-12T13:20:38.727Z,8.40
2019-01-12T13:23:08.107Z,8.40
2019-01-12T13:25:37.430Z,8.40
2019-01-12T13:28:08.022Z,8.40
2019-01-12T13:30:37.458Z,8.40
2019-01-12T13:33:06.736Z,8.40
2019-01-12T13:35:36.093Z,8.40
2019-01-12T13:38:05.676Z,8.40
2019-01-12T13:40:35.145Z,8.40
2019-01-12T13:43:04.458Z,8.40
2019-01-12T13:45:33.930Z,8.40
2019-01-12T13:48:03.271Z,8.40
2019-01-12T13:50:32.694Z,8.40
2019-01-12T13:53:02.060Z,8.40
2019-01-12T13:55:31.411Z,8.40
2019-01-12T13:58:00.725Z,8.50
2019-01-12T14:00:35.150Z,8.50
2019-01-12T14:03:08.431Z,8.50
2019-01-12T14:05:37.898Z,8.50
2019-01-12T14:08:07.801Z,8.50
2019-01-12T14:10:37.338Z,8.50
2019-01-12T14:13:07.384Z,8.50
2019-01-12T14:15:37.168Z,8.50
2019-01-12T14:18:07.057Z,8.60
2019-01-12T14:20:42.433Z,8.60
2019-01-12T14:23:12.077Z,8.60
2019-01-12T14:25:41.368Z,8.60
2019-01-12T14:28:10.693Z,8.60
2019-01-12T14:30:40.043Z,8.60
2019-01-12T14:33:09.334Z,8.60
2019-01-12T14:35:38.644Z,8.60
2019-01-12T14:38:08.033Z,8.60
2019-01-12T14:40:37.423Z,8.60
2019-01-12T14:43:06.724Z,8.60
2019-01-12T14:45:36.184Z,8.60
2019-01-12T14:48:06.150Z,8.60
2019-01-12T14:50:35.496Z,8.60
2019-01-12T14:53:04.884Z,8.60
2019-01-12T14:55:34.283Z,8.60
2019-01-12T14:58:03.660Z,8.60
2019-01-12T15:00:33.096Z,8.50
2019-01-12T15:03:04.807Z,8.50
2019-01-12T15:05:36.048Z,8.50
2019-01-12T15:08:06.061Z,8.50
2019-01-12T15:10:35.368Z,8.50
2019-01-12T15:13:04.715Z,8.50
2019-01-12T15:15:34.078Z,8.50
2019-01-12T15:18:03.659Z,8.50
2019-01-12T15:20:33.135Z,8.50
2019-01-12T15:23:02.440Z,8.50
2019-01-12T15:25:31.848Z,8.50
2019-01-12T15:28:01.250Z,8.50
2019-01-12T15:30:33.033Z,8.50
2019-01-12T15:33:07.076Z,8.50
2019-01-12T15:35:37.718Z,8.40
2019-01-12T15:38:07.112Z,8.40
2019-01-12T15:40:36.419Z,8.40
2019-01-12T15:43:05.733Z,8.40
2019-01-12T15:45:35.180Z,8.40
2019-01-12T15:48:04.869Z,8.30
2019-01-12T15:50:34.177Z,8.30
2019-01-12T15:53:03.470Z,8.30
2019-01-12T15:55:32.749Z,8.30
2019-01-12T15:58:02.045Z,8.30
2019-01-12T16:00:31.482Z,8.30
2019-01-12T16:03:00.852Z,8.20
2019-01-12T16:05:30.964Z,8.20
2019-01-12T16:08:00.316Z,8.20
2019-01-12T16:10:29.606Z,8.20
2019-01-12T16:12:59.004Z,8.10
2019-01-12T16:15:28.572Z,8.10
2019-01-12T16:17:58.520Z,8.10
2019-01-12T16:20:43.390Z,8.10
2019-01-12T16:23:13.997Z,8.10
2019-01-12T16:25:44.043Z,8.10
2019-01-12T16:28:13.594Z,8.10
2019-01-12T16:30:42.885Z,8.10
2019-01-12T16:33:12.248Z,8.10
2019-01-12T16:35:41.548Z,8.10
2019-01-12T16:38:10.885Z,8.10
2019-01-12T16:40:40.137Z,8.10
2019-01-12T16:43:09.444Z,8.10
2019-01-12T16:45:38.675Z,8.10
2019-01-12T16:48:11.123Z,8.10
2019-01-12T16:50:43.249Z,8.10
2019-01-12T16:53:12.529Z,8.10
2019-01-12T16:55:45.091Z,8.10
2019-01-12T16:58:14.459Z,8.10
2019-01-12T17:00:43.740Z,8.00
2019-01-12T17:03:13.072Z,8.00
2019-01-12T17:05:42.330Z,8.00
2019-01-12T17:08:14.749Z,8.00
2019-01-12T17:10:44.155Z,8.00
2019-01-12T17:13:13.507Z,8.00
2019-01-12T17:15:42.913Z,7.90
2019-01-12T17:18:12.180Z,7.90
2019-01-12T17:20:41.455Z,8.00
2019-01-12T17:23:10.881Z,8.00
2019-01-12T17:25:40.231Z,8.00
2019-01-12T17:28:09.555Z,7.90
2019-01-12T17:30:38.827Z,7.90
2019-01-12T17:33:08.103Z,7.90
2019-01-12T17:35:37.409Z,7.90
2019-01-12T17:38:07.417Z,7.90
2019-01-12T17:40:36.774Z,7.90
2019-01-12T17:43:08.873Z,7.90
2019-01-12T17:45:38.157Z,8.00
2019-01-12T17:48:07.428Z,7.90
2019-01-12T17:50:36.761Z,8.00
2019-01-12T17:53:06.202Z,8.00
2019-01-12T17:55:35.580Z,8.00
2019-01-12T17:58:07.429Z,8.00
2019-01-12T18:00:52.791Z,8.00
2019-01-12T18:03:22.079Z,7.90
2019-01-12T18:05:51.478Z,7.90
2019-01-12T18:08:20.768Z,8.00
2019-01-12T18:10:50.215Z,8.00
2019-01-12T18:13:19.588Z,8.00
2019-01-12T18:15:48.853Z,8.00
2019-01-12T18:18:18.129Z,8.00
2019-01-12T18:20:47.542Z,8.00
2019-01-12T18:23:16.858Z,8.10
2019-01-12T18:25:46.107Z,8.00
2019-01-12T18:28:15.565Z,8.00
2019-01-12T18:30:44.967Z,8.00
2019-01-12T18:33:14.224Z,8.00
2019-01-12T18:35:43.516Z,8.00
2019-01-12T18:38:12.852Z,8.10
2019-01-12T18:40:42.166Z,8.00
2019-01-12T18:43:12.555Z,8.00
2019-01-12T18:45:43.862Z,8.00
2019-01-12T18:48:13.108Z,8.10
2019-01-12T18:50:42.468Z,8.10
2019-01-12T18:53:11.721Z,8.10
2019-01-12T18:55:41.113Z,8.10
2019-01-12T18:58:10.380Z,8.10
2019-01-12T19:00:39.741Z,8.10
2019-01-12T19:03:09.041Z,8.10
2019-01-12T19:05:38.289Z,8.20
2019-01-12T19:08:07.596Z,8.20
2019-01-12T19:10:36.844Z,8.20
2019-01-12T19:13:06.131Z,8.20
2019-01-12T19:15:35.598Z,8.20
2019-01-12T19:18:04.878Z,8.20
2019-01-12T19:20:34.325Z,8.20
2019-01-12T19:23:03.610Z,8.20
2019-01-12T19:25:32.949Z,8.20
2019-01-12T19:28:04.993Z,8.20
2019-01-12T19:30:34.265Z,8.20
2019-01-12T19:33:03.491Z,8.20
2019-01-12T19:35:32.784Z,8.20
2019-01-12T19:38:02.131Z,8.20
2019-01-12T19:40:33.155Z,8.20
2019-01-12T19:43:02.400Z,8.20
2019-01-12T19:45:33.214Z,8.30
2019-01-12T19:48:02.550Z,8.30
2019-01-12T19:50:31.849Z,8.30
2019-01-12T19:53:01.205Z,8.30
2019-01-12T19:55:30.459Z,8.30
2019-01-12T19:57:59.740Z,8.30
2019-01-12T20:00:31.109Z,8.30
2019-01-12T20:03:00.306Z,8.30
2019-01-12T20:05:29.548Z,8.30
2019-01-12T20:08:00.550Z,8.30
2019-01-12T20:10:29.828Z,8.30
2019-01-12T20:12:59.084Z,8.30
2019-01-12T20:15:28.424Z,8.30
2019-01-12T20:17:57.635Z,8.30
2019-01-12T20:20:26.872Z,8.30
2019-01-12T20:22:56.258Z,8.30
2019-01-12T20:25:29.989Z,8.30
2019-01-12T20:28:01.533Z,8.30
2019-01-12T20:30:59.924Z,8.30
2019-01-12T20:33:52.732Z,8.30
2019-01-12T20:36:54.122Z,8.40
2019-01-12T20:40:05.086Z,8.30
2019-01-12T20:43:27.764Z,8.30
2019-01-12T20:46:52.367Z,8.30
2019-01-12T20:50:01.077Z,8.30
2019-01-12T20:52:54.389Z,8.30
2019-01-12T20:55:59.432Z,8.30
2019-01-12T20:59:08.588Z,8.30
2019-01-12T21:02:13.555Z,8.30
2019-01-12T21:05:16.112Z,8.30
2019-01-12T21:08:10.487Z,8.40
2019-01-12T21:11:36.085Z,8.30
2019-01-12T21:14:11.589Z,8.30
2019-01-12T21:16:48.382Z,8.30
2019-01-12T21:19:17.781Z,8.30
2019-01-12T21:21:47.025Z,8.30
2019-01-12T21:24:16.361Z,8.30
2019-01-12T21:26:45.725Z,8.30
2019-01-12T21:29:15.037Z,8.30
2019-01-12T21:31:44.380Z,8.30
2019-01-12T21:34:13.680Z,8.30
2019-01-12T21:36:42.918Z,8.40
2019-01-12T21:39:12.151Z,8.30
2019-01-12T21:41:41.403Z,8.30
2019-01-12T21:44:10.689Z,8.30
2019-01-12T21:46:40.011Z,8.30
2019-01-12T21:49:09.317Z,8.30
2019-01-12T21:51:38.696Z,8.30
2019-01-12T21:54:11.233Z,8.30
2019-01-12T21:56:40.457Z,8.20
2019-01-12T21:59:09.997Z,8.20
2019-01-12T22:01:39.384Z,8.20
2019-01-12T22:04:08.650Z,8.20
2019-01-12T22:06:38.011Z,8.20
2019-01-12T22:09:11.110Z,8.20
2019-01-12T22:11:40.845Z,8.10
2019-01-12T22:14:10.176Z,8.20
2019-01-12T22:16:39.477Z,8.10
2019-01-12T22:19:08.736Z,8.10
2019-01-12T22:21:38.022Z,8.10
2019-01-12T22:24:07.345Z,8.10
2019-01-12T22:26:36.722Z,8.10
2019-01-12T22:29:05.981Z,8.10
2019-01-12T22:31:35.275Z,8.00
2019-01-12T22:34:04.596Z,8.00
2019-01-12T22:36:33.947Z,8.00
2019-01-12T22:39:03.805Z,8.10
2019-01-12T22:41:33.269Z,8.00
2019-01-12T22:44:02.596Z,8.00
2019-01-12T22:46:32.048Z,8.00
2019-01-12T22:49:01.489Z,8.00
2019-01-12T22:51:30.849Z,8.00
2019-01-12T22:54:00.297Z,8.00
2019-01-12T22:56:29.698Z,8.00
2019-01-12T22:58:59.063Z,8.00
2019-01-12T23:01:58.747Z,8.00
2019-01-12T23:04:29.434Z,8.00
2019-01-12T23:06:58.733Z,8.00
2019-01-12T23:09:30.262Z,8.00
2019-01-12T23:11:59.781Z,8.00
2019-01-12T23:14:29.108Z,8.00
2019-01-12T23:16:58.584Z,8.00
2019-01-12T23:19:29.393Z,8.00
2019-01-12T23:22:01.419Z,8.00
2019-01-12T23:24:30.958Z,8.00
2019-01-12T23:27:01.011Z,8.00
2019-01-12T23:29:30.416Z,8.00
2019-01-12T23:31:59.829Z,8.00
2019-01-12T23:34:29.110Z,8.00
2019-01-12T23:36:58.455Z,8.00
2019-01-12T23:39:27.864Z,8.00
2019-01-12T23:42:00.373Z,8.00
2019-01-12T23:44:29.675Z,8.00
2019-01-12T23:46:59.142Z,8.00
2019-01-12T23:49:28.495Z,8.00
2019-01-12T23:51:59.408Z,8.00
2019-01-12T23:54:31.501Z,8.00
2019-01-12T23:57:02.774Z,8.00
2019-01-12T23:59:33.732Z,8.00
